Terminal Aerodrome Forecast
Issued by NWS Sioux Falls, SD

Home | Current Version | Previous Version | Graphics & Text | Print | Product List | Glossary Off
Versions: 1 2 3 4 5 6 7 8 9 10 11 12 13 14

000
FTUS43 KFSD 240520
TAFSUX
TAF
KSUX 240520Z 2406/2506 16010KT P6SM FEW250 WS010/20045KT
     FM241200 18019G27KT P6SM SCT080 BKN150
     FM241800 18020G28KT P6SM SCT040 BKN100
     FM242100 22013G19KT P6SM BKN050
     FM250400 31009KT P6SM SCT080=

USA.gov is the U.S. government's official web portal to all federal, state and local government web resources and services.